Warning: Javascript must be enabled to use all the features on this page!


Page Loading - Please Wait...

Click to hideNews Bulletins

Peak Streamflow for Colorado

Click to hide state-specific text


USGS 09124500 LAKE FORK AT GATEVIEW, CO.

Gunnison County, Colorado
Hydrologic Unit Code 14020002
Latitude  38°17'56", Longitude 107°13'46" NAD27
Drainage area 339  square miles
Gage datum 7,827.66 feet above NGVD29
Output formats
Table
Graph
Tab-separated file
peakfq (watstore) format
Reselect output format
Water
Year
Date Gage
Height
(feet)
Stream-
flow
(cfs)
1938 1938-06-21 4.002 2,620
1939 1939-06-05 2.722 1,110
1940 1940-06-02 2.91 1,330
1941 1941-06-24 3.61 2,500
1942 1942-06-08 3.22 2,050
1943 1943-08-11 2.47 1,440
1944 1944-06-25 3.07 2,100
1945 1945-06-15 2.47 1,460
1946 1946-06-07 3.716 1,790
1947 1947-06-09 4.00 2,150
1948 1948-06-10 4.06 2,370
1949 1949-06-17 4.23 2,360
1950 1950-06-17 2.86 1,180
1951 1951-06-17 2.92 1,100
1952 1952-06-08 4.18 2,610
1953 1953-06-13 3.54 2,600
1954 1954-07-23 2.39 856
1955 1955-06-09 3.30 1,530
1956 1956-06-03 3.09 1,340
1957 1957-06-29 4.30 2,700
1958 1958-06-07 3.80 2,440
1959 1959-06-08 3.00 1,330
1960 1960-06-04 3.43 1,800
1961 1961-05-28 3.10 1,420
1962 1962-06-14 3.152 1,460
1963 1963-05-19 2.62 975
1964 1964-05-26 3.272 1,550
1965 1965-06-21 3.62 1,990
1966 1966-05-08 2.87 1,200
1967 1967-05-25 2.86 1,290
1968 1968-06-06 3.70 2,230
1969 1969-05-28 2.84 1,210
1970 1970-05-19 3.372 1,780
1971 1971-06-23 2.94 1,410
1972 1972-06-02 2.632 1,200
1973 1973-06-11 2.762 2,080
1974 1974-05-31 2.18 1,110
1975 1975-06-16 2.872 2,210
1976 1976-06-10 2.48 1,430
1977 1977-06-02 1.872 760
1978 1978-06-16 3.20 1,900
1979 1979-06-16 3.12 1,830
1980 1980-06-11 3.36 2,030
1981 1981-06-08 2.57 1,140
1982 1982-06-29 2.96 1,430
1983 1983-07-10 4.18 2,720
1984 1984-05-26 3.85 2,380
1985 1985-06-09 3.95 2,480
1986 1986-06-08 3.56 1,840
1987 1987-06-09 3.43 1,810
1988 1988-06-05 2.82 1,360
1989 1989-05-30 2.30 814
1990 1990-06-06 3.26 1,790
1991 1991-06-09 3.06 1,560
1992 1992-06-13 3.516 1,030
1993 1993-06-01 4.37 1,920
1994 1994-06-04 4.22 1,740
1995 1995-06-16 4.77 2,270
1996 1996-05-20 4.05 1,500
1997 1997-06-05 4.61 2,080
1998 1998-06-03 3.64 1,240
1999 1999-06-26 4.26 1,720
2000 2000-05-30 4.08 1,730
2001 2001-05-28 3.71 1,370
2002 2002-05-21 2.34 406
2003 2003-05-30 4.04 1,700
2004 2004-06-08 3.65 1,320
2005 2005-05-25 4.18 1,720
2006 2006-05-27 3.75 1,370
2007 2007-06-06 3.98 1,450
2008 2008-06-04 4.322 1,780
2009 2009-05-19 4.43 1,890
2010 2010-06-06 4.21 1,670
2011 2011-06-17 4.35 1,810
2012 2012-05-23 2.882 708
2013 2013-05-17 3.512 1,120
2014 2014-06-01 4.71 2,180
2015 2015-06-11 4.64 2,080
2016 2016-06-06 4.52 1,940
2017 2017-06-09 4.37 1,7709
2018 2018-05-11 3.37 879
2019 2019-07-01 4.81 2,140
2020 2020-06-07 4.17 1,480
2021 2021-06-06 4.04 1,430
?
  Peak Gage-Height Qualification Codes.
?
  Peak Streamflow Qualification Codes.